createdAt,value
2017-09-10T00:01:13.467Z,95.80
2017-09-10T00:03:42.457Z,95.50
2017-09-10T00:06:11.417Z,97.20
2017-09-10T00:08:40.352Z,95.90
2017-09-10T00:11:09.316Z,96.10
2017-09-10T00:13:38.287Z,96.00
2017-09-10T00:16:07.253Z,96.10
2017-09-10T00:18:36.211Z,96.20
2017-09-10T00:21:05.219Z,96.50
2017-09-10T00:23:34.177Z,96.70
2017-09-10T00:26:03.160Z,97.00
2017-09-10T00:28:33.001Z,96.90
2017-09-10T00:31:02.001Z,97.20
2017-09-10T00:33:31.797Z,97.40
2017-09-10T00:36:00.760Z,97.10
2017-09-10T00:38:30.291Z,97.10
2017-09-10T00:40:59.670Z,96.90
2017-09-10T00:43:28.633Z,96.80
2017-09-10T00:45:57.597Z,97.10
2017-09-10T00:48:26.580Z,96.40
2017-09-10T00:50:55.544Z,96.50
2017-09-10T00:53:24.507Z,96.50
2017-09-10T00:55:53.489Z,96.50
2017-09-10T00:58:22.472Z,96.40
2017-09-10T01:00:52.214Z,96.50
2017-09-10T01:03:21.178Z,96.00
2017-09-10T01:05:50.916Z,96.30
2017-09-10T01:08:19.873Z,96.00
2017-09-10T01:10:49.615Z,96.40
2017-09-10T01:13:18.597Z,96.30
2017-09-10T01:15:47.719Z,95.80
2017-09-10T01:18:16.685Z,95.90
2017-09-10T01:20:45.639Z,96.00
2017-09-10T01:23:15.407Z,95.90
2017-09-10T01:25:44.446Z,96.50
2017-09-10T01:28:13.436Z,95.80
2017-09-10T01:30:43.185Z,96.60
2017-09-10T01:33:12.155Z,96.20
2017-09-10T01:35:42.063Z,96.30
2017-09-10T01:38:11.777Z,95.90
2017-09-10T01:40:40.741Z,96.30
2017-09-10T01:43:09.693Z,95.50
2017-09-10T01:45:38.648Z,95.30
2017-09-10T01:48:07.653Z,95.50
2017-09-10T01:50:37.001Z,95.30
2017-09-10T01:53:05.976Z,95.30
2017-09-10T01:55:34.933Z,95.10
2017-09-10T01:58:03.912Z,95.20
2017-09-10T02:00:32.862Z,95.50
2017-09-10T02:03:01.839Z,95.00
2017-09-10T02:05:30.789Z,95.20
2017-09-10T02:08:00.574Z,95.60
2017-09-10T02:10:29.599Z,95.10
2017-09-10T02:12:59.344Z,95.70
2017-09-10T02:15:28.835Z,95.30
2017-09-10T02:17:57.859Z,94.90
2017-09-10T02:20:26.979Z,95.30
2017-09-10T02:22:55.978Z,95.40
2017-09-10T02:25:25.696Z,95.30
2017-09-10T02:27:55.435Z,95.30
2017-09-10T02:30:24.429Z,95.00
2017-09-10T02:32:53.783Z,94.90
2017-09-10T02:35:23.544Z,95.00
2017-09-10T02:37:52.499Z,95.10
2017-09-10T02:40:22.229Z,95.20
2017-09-10T02:42:51.596Z,94.80
2017-09-10T02:45:21.310Z,94.90
2017-09-10T02:47:51.037Z,95.00
2017-09-10T02:50:19.994Z,95.00
2017-09-10T02:52:49.752Z,95.30
2017-09-10T02:55:18.745Z,95.10
2017-09-10T02:57:48.116Z,94.90
2017-09-10T03:00:17.840Z,95.10
2017-09-10T03:02:46.825Z,95.10
2017-09-10T03:05:16.556Z,94.60
2017-09-10T03:07:45.521Z,94.60
2017-09-10T03:10:15.281Z,94.90
2017-09-10T03:12:44.231Z,94.80
2017-09-10T03:15:13.982Z,94.90
2017-09-10T03:17:42.921Z,94.40
2017-09-10T03:20:12.302Z,94.50
2017-09-10T03:22:41.232Z,94.60
2017-09-10T03:25:10.244Z,94.60
2017-09-10T03:27:39.220Z,94.70
2017-09-10T03:30:08.988Z,94.70
2017-09-10T03:32:38.049Z,95.00
2017-09-10T03:35:07.264Z,95.50
2017-09-10T03:37:36.220Z,95.30
2017-09-10T03:40:05.639Z,94.50
2017-09-10T03:42:34.565Z,95.00
2017-09-10T03:45:03.540Z,95.40
2017-09-10T03:47:32.477Z,95.30
2017-09-10T03:50:02.189Z,95.50
2017-09-10T03:52:31.158Z,95.20
2017-09-10T03:55:00.141Z,95.30
2017-09-10T03:57:29.096Z,95.60
2017-09-10T03:59:58.042Z,95.40
2017-09-10T04:02:27.424Z,95.30
2017-09-10T04:04:56.504Z,95.40
2017-09-10T04:07:25.472Z,95.50
2017-09-10T04:09:54.418Z,95.60
2017-09-10T04:12:23.388Z,95.80
2017-09-10T04:14:52.793Z,95.60
2017-09-10T04:17:21.792Z,95.80
2017-09-10T04:19:51.526Z,96.40
2017-09-10T04:22:20.507Z,96.20
2017-09-10T04:24:50.291Z,96.40
2017-09-10T04:27:19.263Z,96.10
2017-09-10T04:29:48.215Z,96.10
2017-09-10T04:32:17.700Z,96.40
2017-09-10T04:34:46.664Z,96.50
2017-09-10T04:37:16.033Z,96.60
2017-09-10T04:39:44.995Z,96.80
2017-09-10T04:42:14.028Z,96.90
2017-09-10T04:44:42.985Z,97.20
2017-09-10T04:47:11.974Z,97.00
2017-09-10T04:49:40.956Z,97.20
2017-09-10T04:52:09.933Z,97.20
2017-09-10T04:54:39.673Z,97.40
2017-09-10T04:57:08.656Z,97.30
2017-09-10T04:59:37.634Z,97.30
2017-09-10T05:02:06.668Z,97.30
2017-09-10T05:04:35.621Z,97.60
2017-09-10T05:07:05.367Z,97.90
2017-09-10T05:09:34.347Z,97.80
2017-09-10T05:12:03.316Z,97.40
2017-09-10T05:14:32.675Z,97.50
2017-09-10T05:17:01.673Z,97.60
2017-09-10T05:19:31.436Z,97.80
2017-09-10T05:22:00.410Z,97.60
2017-09-10T05:24:29.405Z,97.40
2017-09-10T05:26:58.412Z,97.40
2017-09-10T05:29:27.379Z,97.60
2017-09-10T05:31:56.356Z,97.70
2017-09-10T05:34:25.345Z,97.80
2017-09-10T05:36:54.323Z,98.20
2017-09-10T05:39:24.065Z,98.20
2017-09-10T05:41:53.792Z,98.50
2017-09-10T05:44:22.802Z,98.00
2017-09-10T05:46:51.865Z,98.10
2017-09-10T05:49:20.840Z,98.30
2017-09-10T05:51:49.830Z,98.40
2017-09-10T05:54:19.608Z,98.60
2017-09-10T05:56:48.592Z,98.10
2017-09-10T05:59:17.981Z,98.30
2017-09-10T06:01:47.454Z,98.20
2017-09-10T06:04:16.527Z,98.10
2017-09-10T06:06:46.348Z,98.20
2017-09-10T06:09:16.281Z,98.60
2017-09-10T06:11:45.236Z,98.40
2017-09-10T06:14:15.017Z,98.90
2017-09-10T06:16:44.010Z,98.60
2017-09-10T06:19:12.986Z,98.70
2017-09-10T06:21:42.771Z,99.10
2017-09-10T06:24:11.731Z,99.10
2017-09-10T06:26:41.601Z,98.80
2017-09-10T06:29:10.685Z,98.50
2017-09-10T06:31:40.127Z,98.70
2017-09-10T06:34:09.148Z,98.80
2017-09-10T06:36:38.214Z,98.70
2017-09-10T06:39:08.348Z,98.50
2017-09-10T06:41:37.338Z,98.30
2017-09-10T06:44:06.296Z,98.70
2017-09-10T06:46:36.175Z,98.60
2017-09-10T06:49:05.924Z,99.20
2017-09-10T06:51:34.945Z,98.70
2017-09-10T06:54:04.791Z,98.90
2017-09-10T06:56:33.789Z,99.20
2017-09-10T06:59:03.505Z,99.10
2017-09-10T07:01:33.244Z,99.40
2017-09-10T07:04:02.395Z,98.90
2017-09-10T07:06:31.808Z,99.10
2017-09-10T07:09:01.683Z,99.00
2017-09-10T07:11:32.039Z,98.40
2017-09-10T07:14:01.798Z,98.70
2017-09-10T07:16:31.541Z,98.90
2017-09-10T07:19:00.563Z,98.20
2017-09-10T07:21:29.555Z,98.70
2017-09-10T07:23:58.613Z,98.70
2017-09-10T07:26:28.348Z,98.10
2017-09-10T07:28:57.355Z,97.80
2017-09-10T07:31:26.434Z,97.80
2017-09-10T07:33:56.448Z,98.60
2017-09-10T07:36:26.201Z,98.20
2017-09-10T07:38:56.003Z,97.70
2017-09-10T07:41:25.124Z,98.40
2017-09-10T07:43:54.855Z,98.30
2017-09-10T07:46:24.630Z,98.20
2017-09-10T07:48:53.630Z,97.50
2017-09-10T07:51:22.636Z,97.90
2017-09-10T07:53:51.780Z,98.00
2017-09-10T07:56:21.692Z,97.60
2017-09-10T07:58:50.716Z,97.30
2017-09-10T08:01:19.700Z,97.40
2017-09-10T08:03:48.789Z,97.70
2017-09-10T08:06:17.867Z,97.70
2017-09-10T08:08:47.769Z,98.10
2017-09-10T08:11:16.748Z,98.00
2017-09-10T08:13:46.502Z,98.00
2017-09-10T08:16:16.016Z,98.00
2017-09-10T08:18:45.016Z,98.40
2017-09-10T08:21:14.757Z,97.60
2017-09-10T08:23:44.613Z,97.30
2017-09-10T08:26:13.646Z,97.30
2017-09-10T08:28:42.666Z,96.90
2017-09-10T08:31:12.427Z,97.70
2017-09-10T08:33:41.376Z,97.10
2017-09-10T08:36:10.387Z,97.70
2017-09-10T08:38:39.343Z,97.30
2017-09-10T08:41:08.732Z,96.60
2017-09-10T08:43:38.525Z,96.40
2017-09-10T08:46:08.496Z,96.70
2017-09-10T08:48:38.430Z,96.70
2017-09-10T08:51:08.250Z,96.90
2017-09-10T08:53:37.393Z,96.90
2017-09-10T08:56:06.498Z,97.30
2017-09-10T08:58:36.354Z,96.90
2017-09-10T09:01:05.811Z,95.80
2017-09-10T09:03:35.557Z,96.20
2017-09-10T09:06:05.226Z,95.50
2017-09-10T09:08:34.957Z,95.30
2017-09-10T09:11:04.568Z,93.90
2017-09-10T09:13:33.616Z,93.90
2017-09-10T09:16:02.643Z,94.50
2017-09-10T09:18:31.632Z,95.50
2017-09-10T09:21:02.184Z,94.50
2017-09-10T09:23:31.179Z,95.00
2017-09-10T09:26:00.538Z,94.30
2017-09-10T09:28:29.939Z,94.70
2017-09-10T09:30:58.911Z,93.60
2017-09-10T09:33:27.899Z,93.30
2017-09-10T09:35:56.866Z,93.60
2017-09-10T09:38:26.356Z,93.30
2017-09-10T09:40:56.653Z,93.60
2017-09-10T09:43:26.519Z,94.10
2017-09-10T09:45:55.613Z,93.00
2017-09-10T09:48:25.494Z,92.40
2017-09-10T09:50:54.575Z,92.90
2017-09-10T09:53:24.349Z,92.90
2017-09-10T09:55:53.372Z,92.40
2017-09-10T09:58:22.396Z,92.70
2017-09-10T10:00:51.405Z,92.30
2017-09-10T10:03:20.525Z,91.90
2017-09-10T10:05:49.534Z,92.20
2017-09-10T10:08:18.551Z,92.10
2017-09-10T10:10:47.529Z,91.30
2017-09-10T10:13:16.622Z,90.40
2017-09-10T10:15:46.346Z,91.30
2017-09-10T10:18:15.857Z,91.20
2017-09-10T10:20:45.589Z,90.80
2017-09-10T10:23:15.362Z,90.10
2017-09-10T10:25:44.320Z,89.80
2017-09-10T10:28:14.786Z,90.10
2017-09-10T10:30:43.796Z,91.60
2017-09-10T10:33:13.647Z,87.90
2017-09-10T10:35:43.394Z,85.20
2017-09-10T10:38:12.801Z,85.10
2017-09-10T10:40:41.756Z,86.40
2017-09-10T10:43:10.825Z,88.10
2017-09-10T10:45:39.889Z,85.20
2017-09-10T10:48:08.985Z,84.80
2017-09-10T10:50:37.994Z,83.50
2017-09-10T10:53:07.402Z,85.20
2017-09-10T10:55:37.020Z,85.00
2017-09-10T10:58:06.491Z,84.00
2017-09-10T11:00:36.207Z,84.70
2017-09-10T11:03:05.320Z,81.80
2017-09-10T11:05:34.740Z,81.80
2017-09-10T11:08:03.740Z,82.30
2017-09-10T11:10:33.087Z,82.00
2017-09-10T11:13:02.905Z,79.70
2017-09-10T11:15:31.933Z,78.20
2017-09-10T11:18:00.987Z,75.20
2017-09-10T11:20:30.868Z,76.30
2017-09-10T11:23:00.739Z,78.80
2017-09-10T11:25:30.039Z,77.00
2017-09-10T11:27:59.153Z,77.70
2017-09-10T11:30:28.125Z,79.00
2017-09-10T11:32:57.454Z,74.50
2017-09-10T11:35:26.474Z,75.30
2017-09-10T11:37:56.305Z,76.80
2017-09-10T11:40:25.301Z,77.50
2017-09-10T11:42:54.760Z,80.50
2017-09-10T11:45:24.768Z,81.30
2017-09-10T11:47:54.008Z,79.30
2017-09-10T11:50:23.016Z,72.30
2017-09-10T11:52:51.972Z,68.20
2017-09-10T11:55:21.761Z,66.40
2017-09-10T11:57:50.721Z,66.30
2017-09-10T12:00:19.686Z,63.00
2017-09-10T12:02:48.650Z,62.20
2017-09-10T12:05:18.417Z,66.20
2017-09-10T12:07:47.760Z,64.00
2017-09-10T12:10:17.498Z,62.90
2017-09-10T12:12:46.457Z,62.90
2017-09-10T12:15:16.196Z,62.10
2017-09-10T12:17:45.965Z,59.10
2017-09-10T12:20:14.952Z,59.50
2017-09-10T12:22:43.883Z,59.30
2017-09-10T12:25:12.858Z,59.30
2017-09-10T12:27:42.665Z,59.90
2017-09-10T12:30:12.050Z,59.80
2017-09-10T12:32:41.097Z,59.70
2017-09-10T12:35:10.060Z,58.30
2017-09-10T12:37:39.788Z,57.90
2017-09-10T12:40:08.768Z,57.60
2017-09-10T12:42:37.703Z,57.90
2017-09-10T12:45:06.685Z,57.50
2017-09-10T12:47:35.665Z,58.40
2017-09-10T12:50:04.658Z,59.70
2017-09-10T12:52:34.356Z,54.60
2017-09-10T12:55:03.338Z,55.30
2017-09-10T12:57:32.290Z,53.90
2017-09-10T13:00:01.266Z,55.20
2017-09-10T13:02:30.229Z,55.80
2017-09-10T13:04:59.968Z,56.50
2017-09-10T13:07:28.926Z,55.60
2017-09-10T13:09:57.986Z,55.80
2017-09-10T13:12:26.924Z,57.00
2017-09-10T13:14:56.704Z,59.20
2017-09-10T13:17:25.763Z,60.90
2017-09-10T13:19:54.746Z,57.50
2017-09-10T13:22:23.696Z,56.40
2017-09-10T13:24:52.709Z,55.20
2017-09-10T13:27:21.755Z,56.30
2017-09-10T13:29:50.730Z,53.40
2017-09-10T13:32:19.702Z,52.70
2017-09-10T13:34:49.153Z,51.40
2017-09-10T13:37:18.861Z,54.80
2017-09-10T13:39:47.841Z,53.30
2017-09-10T13:42:17.248Z,52.70
2017-09-10T13:44:46.217Z,53.40
2017-09-10T13:47:15.199Z,55.50
2017-09-10T13:49:44.172Z,55.50
2017-09-10T13:52:13.902Z,54.40
2017-09-10T13:54:42.892Z,53.00
2017-09-10T13:57:11.833Z,54.00
2017-09-10T13:59:40.792Z,56.50
2017-09-10T14:02:10.540Z,57.70
2017-09-10T14:04:39.500Z,57.70
2017-09-10T14:07:08.476Z,57.00
2017-09-10T14:09:37.445Z,58.70
2017-09-10T14:12:06.417Z,59.90
2017-09-10T14:14:35.749Z,59.50
2017-09-10T14:17:04.736Z,61.40
2017-09-10T14:19:34.458Z,62.50
2017-09-10T14:22:03.452Z,63.30
2017-09-10T14:24:32.431Z,61.30
2017-09-10T14:27:01.400Z,62.20
2017-09-10T14:29:30.397Z,59.80
2017-09-10T14:32:00.393Z,56.50
2017-09-10T14:34:29.368Z,55.40
2017-09-10T14:36:58.345Z,55.50
2017-09-10T14:39:28.057Z,58.00
2017-09-10T14:41:57.792Z,58.40
2017-09-10T14:44:26.777Z,59.10
2017-09-10T14:46:55.765Z,58.80
2017-09-10T14:49:25.520Z,56.70
2017-09-10T14:51:54.505Z,58.20
2017-09-10T14:54:24.184Z,59.50
2017-09-10T14:56:53.178Z,58.70
2017-09-10T14:59:22.757Z,59.00
2017-09-10T15:01:51.752Z,60.10
2017-09-10T15:04:20.809Z,60.50
2017-09-10T15:06:49.870Z,61.00
2017-09-10T15:09:19.100Z,62.40
2017-09-10T15:11:48.125Z,63.90
2017-09-10T15:14:17.481Z,64.00
2017-09-10T15:16:46.483Z,66.30
2017-09-10T15:19:15.488Z,66.80
2017-09-10T15:21:45.254Z,66.70
2017-09-10T15:24:14.628Z,66.60
2017-09-10T15:26:44.423Z,68.10
2017-09-10T15:29:14.234Z,67.40
2017-09-10T15:31:43.210Z,65.80
2017-09-10T15:34:12.334Z,66.80
2017-09-10T15:36:41.330Z,68.00
2017-09-10T15:39:10.411Z,68.60
2017-09-10T15:41:39.377Z,70.30
2017-09-10T15:44:08.432Z,68.00
2017-09-10T15:46:38.321Z,69.70
2017-09-10T15:49:08.084Z,70.00
2017-09-10T15:51:37.070Z,69.90
2017-09-10T15:54:06.801Z,70.50
2017-09-10T15:56:36.579Z,71.40
2017-09-10T15:59:05.547Z,72.00
2017-09-10T16:01:34.642Z,71.10
2017-09-10T16:04:04.542Z,72.30
2017-09-10T16:06:33.516Z,71.80
2017-09-10T16:09:02.561Z,72.60
2017-09-10T16:11:31.559Z,72.00
2017-09-10T16:14:00.562Z,72.00
2017-09-10T16:16:29.553Z,71.10
2017-09-10T16:18:58.608Z,70.00
2017-09-10T16:21:27.658Z,70.30
2017-09-10T16:23:56.733Z,72.00
2017-09-10T16:26:28.102Z,71.00
2017-09-10T16:28:57.126Z,70.50
2017-09-10T16:31:26.963Z,71.30
2017-09-10T16:33:56.823Z,71.30
2017-09-10T16:36:26.525Z,71.30
2017-09-10T16:38:56.277Z,70.80
2017-09-10T16:41:26.353Z,73.60
2017-09-10T16:43:55.324Z,71.90
2017-09-10T16:46:24.473Z,71.00
2017-09-10T16:48:53.499Z,72.00
2017-09-10T16:51:22.481Z,72.30
2017-09-10T16:53:51.486Z,73.20
2017-09-10T16:56:20.461Z,73.50
2017-09-10T16:58:50.399Z,72.30
2017-09-10T17:01:19.371Z,72.80
2017-09-10T17:03:48.340Z,74.00
2017-09-10T17:06:17.344Z,73.50
2017-09-10T17:08:47.165Z,74.70
2017-09-10T17:11:16.977Z,74.90
2017-09-10T17:13:45.925Z,74.70
2017-09-10T17:16:14.956Z,74.70
2017-09-10T17:18:43.887Z,75.90
2017-09-10T17:21:12.844Z,75.10
2017-09-10T17:23:41.837Z,74.50
2017-09-10T17:26:11.011Z,75.40
2017-09-10T17:28:39.994Z,74.90
2017-09-10T17:31:08.986Z,75.00
2017-09-10T17:33:37.966Z,74.90
2017-09-10T17:36:07.020Z,74.40
2017-09-10T17:38:36.104Z,74.50
2017-09-10T17:41:05.080Z,74.50
2017-09-10T17:43:34.270Z,74.80
2017-09-10T17:46:04.018Z,75.10
2017-09-10T17:48:33.085Z,74.70
2017-09-10T17:51:02.049Z,75.20
2017-09-10T17:53:31.070Z,75.40
2017-09-10T17:56:00.806Z,76.60
2017-09-10T17:58:30.238Z,76.20
2017-09-10T18:00:59.597Z,76.50
2017-09-10T18:03:28.540Z,76.70
2017-09-10T18:05:57.530Z,77.20
2017-09-10T18:08:26.490Z,77.00
2017-09-10T18:10:55.532Z,77.10
2017-09-10T18:13:24.466Z,77.00
2017-09-10T18:15:53.552Z,77.90
2017-09-10T18:18:22.558Z,77.70
2017-09-10T18:20:51.571Z,78.60
2017-09-10T18:23:21.414Z,79.50
2017-09-10T18:25:51.475Z,80.00
2017-09-10T18:28:21.038Z,79.20
2017-09-10T18:30:50.903Z,81.30
2017-09-10T18:33:19.866Z,80.20
2017-09-10T18:35:48.839Z,80.00
2017-09-10T18:38:18.664Z,81.70
2017-09-10T18:40:48.371Z,80.50
2017-09-10T18:43:17.374Z,80.20
2017-09-10T18:45:46.359Z,81.00
2017-09-10T18:48:16.130Z,80.60
2017-09-10T18:50:45.529Z,81.80
2017-09-10T18:53:15.326Z,81.70
2017-09-10T18:55:44.311Z,80.80
2017-09-10T18:58:13.402Z,81.00
2017-09-10T19:00:42.440Z,81.70
2017-09-10T19:03:11.461Z,80.80
2017-09-10T19:05:40.463Z,80.90
2017-09-10T19:08:09.520Z,81.00
2017-09-10T19:10:39.331Z,82.10
2017-09-10T19:13:08.321Z,80.80
2017-09-10T19:15:38.075Z,82.50
2017-09-10T19:18:07.745Z,81.20
2017-09-10T19:20:37.525Z,82.50
2017-09-10T19:23:06.498Z,81.10
2017-09-10T19:25:35.554Z,81.80
2017-09-10T19:28:05.296Z,82.80
2017-09-10T19:30:34.301Z,82.00
2017-09-10T19:33:04.053Z,83.10
2017-09-10T19:35:33.843Z,83.30
2017-09-10T19:38:02.829Z,82.80
2017-09-10T19:40:31.836Z,82.20
2017-09-10T19:43:00.856Z,82.80
2017-09-10T19:45:30.272Z,82.30
2017-09-10T19:47:59.686Z,82.40
2017-09-10T19:50:28.690Z,82.80
2017-09-10T19:52:57.697Z,82.40
2017-09-10T19:55:26.669Z,82.90
2017-09-10T19:57:55.647Z,82.90
2017-09-10T20:00:24.638Z,82.30
2017-09-10T20:02:53.653Z,83.00
2017-09-10T20:05:23.492Z,82.90
2017-09-10T20:07:52.446Z,82.50
2017-09-10T20:10:21.417Z,83.50
2017-09-10T20:12:50.513Z,83.30
2017-09-10T20:15:19.855Z,83.80
2017-09-10T20:17:48.844Z,83.40
2017-09-10T20:20:17.832Z,83.90
2017-09-10T20:22:46.864Z,83.90
2017-09-10T20:25:15.850Z,84.30
2017-09-10T20:27:44.799Z,84.70
2017-09-10T20:30:13.775Z,85.20
2017-09-10T20:32:42.737Z,83.50
2017-09-10T20:35:12.482Z,83.10
2017-09-10T20:37:41.832Z,82.90
2017-09-10T20:40:11.277Z,82.50
2017-09-10T20:42:40.273Z,82.30
2017-09-10T20:45:09.217Z,82.90
2017-09-10T20:47:38.961Z,81.80
2017-09-10T20:50:08.009Z,81.70
2017-09-10T20:52:36.971Z,82.10
2017-09-10T20:55:05.935Z,82.00
2017-09-10T20:57:34.977Z,80.40
2017-09-10T21:00:03.934Z,80.20
2017-09-10T21:02:32.933Z,80.30
2017-09-10T21:05:01.898Z,80.30
2017-09-10T21:07:30.872Z,79.30
2017-09-10T21:10:00.596Z,79.80
2017-09-10T21:12:29.580Z,79.40
2017-09-10T21:14:59.325Z,79.70
2017-09-10T21:17:28.601Z,79.10
2017-09-10T21:19:57.585Z,79.00
2017-09-10T21:22:28.202Z,80.20
2017-09-10T21:24:57.173Z,79.50
2017-09-10T21:27:26.114Z,79.50
2017-09-10T21:29:56.308Z,79.60
2017-09-10T21:32:26.021Z,80.70
2017-09-10T21:34:55.748Z,81.50
2017-09-10T21:37:24.721Z,81.30
2017-09-10T21:39:54.516Z,82.60
2017-09-10T21:42:23.484Z,81.80
2017-09-10T21:44:52.545Z,82.10
2017-09-10T21:47:22.241Z,82.50
2017-09-10T21:49:51.619Z,81.90
2017-09-10T21:52:21.350Z,82.60
2017-09-10T21:54:50.785Z,82.50
2017-09-10T21:57:19.740Z,81.60
2017-09-10T21:59:48.717Z,81.80
2017-09-10T22:02:18.488Z,82.20
2017-09-10T22:04:47.443Z,81.70
2017-09-10T22:07:16.614Z,81.40
2017-09-10T22:09:45.576Z,81.00
2017-09-10T22:12:14.528Z,80.80
2017-09-10T22:14:43.496Z,80.90
2017-09-10T22:17:13.236Z,80.30
2017-09-10T22:19:42.247Z,80.10
2017-09-10T22:22:11.222Z,80.10
2017-09-10T22:24:40.189Z,79.90
2017-09-10T22:27:09.145Z,79.70
2017-09-10T22:29:38.509Z,79.10
2017-09-10T22:32:07.472Z,79.20
2017-09-10T22:34:37.209Z,79.90
2017-09-10T22:37:06.219Z,80.00
2017-09-10T22:39:35.626Z,78.90
2017-09-10T22:42:04.562Z,78.50
2017-09-10T22:44:33.544Z,78.70
2017-09-10T22:47:02.490Z,78.20
2017-09-10T22:49:31.445Z,78.20
2017-09-10T22:52:00.392Z,77.30
2017-09-10T22:54:29.362Z,78.50
2017-09-10T22:56:58.312Z,77.70
2017-09-10T22:59:28.061Z,78.60
2017-09-10T23:01:57.670Z,78.10
2017-09-10T23:04:26.794Z,78.40
2017-09-10T23:06:55.790Z,78.50
2017-09-10T23:09:24.744Z,77.70
2017-09-10T23:11:53.727Z,78.80
2017-09-10T23:14:22.800Z,77.70
2017-09-10T23:16:52.500Z,77.60
2017-09-10T23:19:22.246Z,78.30
2017-09-10T23:21:51.292Z,77.60
2017-09-10T23:24:21.041Z,78.80
2017-09-10T23:26:50.737Z,78.10
2017-09-10T23:29:19.712Z,77.80
2017-09-10T23:31:49.438Z,79.10
2017-09-10T23:34:18.391Z,79.10
2017-09-10T23:36:47.365Z,81.80
2017-09-10T23:39:16.723Z,78.70
2017-09-10T23:41:45.700Z,79.30
2017-09-10T23:44:15.045Z,78.10
2017-09-10T23:46:44.028Z,78.40
2017-09-10T23:49:13.764Z,77.70
2017-09-10T23:51:42.747Z,78.40
2017-09-10T23:54:11.700Z,77.60
2017-09-10T23:56:40.693Z,77.70
2017-09-10T23:59:09.668Z,78.00
